createdAt,value
2016-03-15T14:29:53.416Z,510
2016-03-15T14:30:53.963Z,530
2016-03-15T14:31:55.032Z,525
2016-03-15T14:32:54.504Z,565
2016-03-15T14:33:54.110Z,605
2016-03-15T14:34:53.977Z,605
2016-03-15T14:35:53.792Z,590
2016-03-15T14:36:53.920Z,595
2016-03-15T14:37:53.906Z,575
2016-03-15T14:38:53.941Z,585
2016-03-15T14:39:53.881Z,605
2016-03-15T14:40:53.898Z,605
2016-03-15T14:41:53.871Z,585
2016-03-15T14:42:53.826Z,555
2016-03-15T14:43:53.845Z,530
2016-03-15T14:44:53.801Z,440
2016-03-15T14:45:53.834Z,375
2016-03-15T14:46:53.806Z,365
2016-03-15T14:47:53.793Z,335
2016-03-15T14:48:53.764Z,340
2016-03-15T14:49:53.767Z,360
2016-03-15T14:50:53.723Z,370
2016-03-15T14:51:53.742Z,395
2016-03-15T14:52:53.713Z,370
2016-03-15T14:53:53.699Z,385
2016-03-15T14:54:53.672Z,400
2016-03-15T14:55:53.658Z,405
2016-03-15T14:56:53.332Z,420
2016-03-15T14:57:53.633Z,400
2016-03-15T14:58:53.635Z,435
2016-03-15T14:59:53.607Z,395
2016-03-15T15:00:53.594Z,380
2016-03-15T15:01:53.424Z,360
2016-03-15T15:02:53.568Z,320
2016-03-15T15:03:53.540Z,355
2016-03-15T15:04:53.526Z,335
2016-03-15T15:05:53.513Z,315
2016-03-15T15:06:53.516Z,410
2016-03-15T15:07:53.504Z,500
2016-03-15T15:08:53.490Z,525
2016-03-15T15:09:53.461Z,570
2016-03-15T15:10:53.465Z,605
2016-03-15T15:11:53.451Z,615
2016-03-15T15:12:53.416Z,615
2016-03-15T15:13:53.390Z,595
2016-03-15T15:14:53.206Z,590
2016-03-15T15:15:53.337Z,640
2016-03-15T15:16:53.341Z,710
2016-03-15T15:17:53.302Z,680
2016-03-15T15:18:53.269Z,670
2016-03-15T15:19:53.251Z,705
2016-03-15T15:20:53.249Z,690
2016-03-15T15:21:53.215Z,670
2016-03-15T15:22:53.199Z,615
2016-03-15T15:23:53.200Z,585
2016-03-15T15:24:53.186Z,545
2016-03-15T15:25:53.171Z,510
2016-03-15T15:26:53.140Z,485
2016-03-15T15:27:53.127Z,455
2016-03-15T15:28:53.129Z,400
2016-03-15T15:29:53.115Z,375
2016-03-15T15:30:53.070Z,360
2016-03-15T15:31:53.072Z,370
2016-03-15T15:32:53.058Z,370
2016-03-15T15:33:53.061Z,375
2016-03-15T15:34:53.063Z,385
2016-03-15T15:35:53.020Z,375
2016-03-15T15:36:53.007Z,385
2016-03-15T15:37:52.978Z,450
2016-03-15T15:38:52.981Z,520
2016-03-15T15:39:52.967Z,565
2016-03-15T15:40:52.954Z,610
2016-03-15T15:41:52.942Z,635
2016-03-15T15:42:52.914Z,665
2016-03-15T15:43:52.901Z,665
2016-03-15T15:44:52.887Z,675
2016-03-15T15:45:52.875Z,645
2016-03-15T15:46:52.878Z,565
2016-03-15T15:47:52.833Z,470
2016-03-15T15:48:52.836Z,415
2016-03-15T15:49:52.839Z,395
2016-03-15T15:50:52.810Z,380
2016-03-15T15:51:52.797Z,355
2016-03-15T15:52:52.784Z,325
2016-03-15T15:53:52.771Z,285
2016-03-15T15:54:52.758Z,270
2016-03-15T15:55:52.824Z,250
2016-03-15T15:56:52.748Z,240
2016-03-15T15:57:52.736Z,235
2016-03-15T15:58:52.707Z,225
2016-03-15T15:59:52.693Z,215
2016-03-15T16:00:52.681Z,210
2016-03-15T16:01:52.683Z,210
2016-03-15T16:02:52.654Z,205
2016-03-15T16:03:52.642Z,195
2016-03-15T16:04:52.629Z,180
2016-03-15T16:05:52.616Z,175
2016-03-15T16:06:52.291Z,185
2016-03-15T16:07:52.610Z,170
2016-03-15T16:08:52.581Z,145
2016-03-15T16:09:52.553Z,135
2016-03-15T16:10:52.618Z,120
2016-03-15T16:11:52.527Z,110
2016-03-15T16:12:52.530Z,115
2016-03-15T16:13:52.517Z,110
2016-03-15T16:14:52.504Z,115
2016-03-15T16:15:52.507Z,105
2016-03-15T16:16:52.447Z,110
2016-03-15T16:17:52.434Z,100
2016-03-15T16:18:52.437Z,100
2016-03-15T16:19:52.425Z,105
2016-03-15T16:20:52.411Z,105
2016-03-15T16:21:52.397Z,110
2016-03-15T16:22:52.370Z,125
2016-03-15T16:23:52.357Z,130
2016-03-15T16:24:52.327Z,135
2016-03-15T16:25:52.347Z,135
2016-03-15T16:26:52.302Z,140
2016-03-15T16:27:52.305Z,140
2016-03-15T16:28:52.292Z,140
2016-03-15T16:29:52.279Z,145
2016-03-15T16:30:52.266Z,145
2016-03-15T16:31:52.238Z,145
2016-03-15T16:32:52.771Z,150
2016-03-15T16:33:52.227Z,150
2016-03-15T16:34:52.199Z,150
2016-03-15T16:35:52.170Z,150
2016-03-15T16:36:52.173Z,145
2016-03-15T16:37:52.145Z,145
2016-03-15T16:38:52.147Z,140
2016-03-15T16:39:51.978Z,135
2016-03-15T16:40:52.153Z,130
2016-03-15T16:41:52.092Z,125
2016-03-15T16:42:52.079Z,120
2016-03-15T16:43:52.067Z,120
2016-03-15T16:44:52.054Z,115
2016-03-15T16:45:52.025Z,115
2016-03-15T16:46:52.012Z,110
2016-03-15T16:47:51.984Z,115
2016-03-15T16:48:51.986Z,105
2016-03-15T16:49:51.973Z,105
2016-03-15T16:50:51.961Z,105
2016-03-15T16:51:51.948Z,105
2016-03-15T16:52:51.935Z,95
2016-03-15T16:53:51.984Z,105
2016-03-15T16:54:51.894Z,105
2016-03-15T16:55:51.880Z,105
2016-03-15T16:56:51.867Z,100
2016-03-15T16:57:51.855Z,95
2016-03-15T16:58:51.841Z,90
2016-03-15T16:59:51.829Z,85
2016-03-15T17:00:51.799Z,85
2016-03-15T17:01:51.788Z,80
2016-03-15T17:02:51.774Z,85
2016-03-15T17:03:51.760Z,85
2016-03-15T17:04:51.749Z,85
2016-03-15T17:05:51.751Z,75
2016-03-15T17:06:51.706Z,75
2016-03-15T17:07:51.709Z,75
2016-03-15T17:08:51.696Z,70
2016-03-15T17:09:51.699Z,65
2016-03-15T17:10:51.655Z,65
2016-03-15T17:11:51.626Z,65
2016-03-15T17:12:51.614Z,60
2016-03-15T17:13:51.617Z,60
2016-03-15T17:14:51.587Z,55
2016-03-15T17:15:51.575Z,55
2016-03-15T17:16:51.562Z,55
2016-03-15T17:17:51.580Z,55
2016-03-15T17:18:51.551Z,50
2016-03-15T17:19:51.523Z,50
2016-03-15T17:20:51.494Z,45
2016-03-15T17:21:51.481Z,45
2016-03-15T17:22:51.453Z,40
2016-03-15T17:23:51.439Z,40
2016-03-15T17:24:51.442Z,35
2016-03-15T17:25:51.430Z,35
2016-03-15T17:26:51.401Z,35
2016-03-15T17:27:51.373Z,30
2016-03-15T17:28:51.391Z,30
2016-03-15T17:29:51.346Z,30
2016-03-15T17:30:51.350Z,25
2016-03-15T17:31:51.321Z,25
2016-03-15T17:32:51.307Z,25
2016-03-15T17:33:51.296Z,20
2016-03-15T17:34:51.282Z,20
2016-03-15T17:35:51.504Z,20
2016-03-15T17:36:51.257Z,15
2016-03-15T17:37:51.227Z,15
2016-03-15T17:38:51.215Z,15
2016-03-15T17:39:51.187Z,10
2016-03-15T17:40:51.173Z,10
2016-03-15T17:41:51.175Z,10
2016-03-15T17:42:51.163Z,10
2016-03-15T17:43:51.134Z,5
2016-03-15T17:44:51.106Z,5
2016-03-15T17:45:51.093Z,5
2016-03-15T17:46:51.080Z,5
2016-03-15T17:47:51.067Z,5
2016-03-15T17:48:51.070Z,5
2016-03-15T17:49:51.041Z,0
2016-03-15T17:50:51.012Z,0
2016-03-15T17:51:51.000Z,0
2016-03-15T17:52:51.002Z,0
2016-03-15T17:53:50.959Z,0
2016-03-15T17:54:50.961Z,0
2016-03-15T17:55:50.932Z,0
2016-03-15T17:56:50.920Z,0
2016-03-15T17:57:50.922Z,0
2016-03-15T17:58:50.893Z,0
2016-03-15T17:59:50.911Z,0
2016-03-15T18:00:50.852Z,0
2016-03-15T18:01:50.871Z,0
2016-03-15T18:02:50.810Z,0
2016-03-15T18:03:50.844Z,0
2016-03-15T18:04:50.785Z,0
2016-03-15T18:05:50.787Z,0
2016-03-15T18:06:50.759Z,0
2016-03-15T18:07:50.792Z,0
2016-03-15T18:08:50.718Z,0
2016-03-15T18:09:50.720Z,0
2016-03-15T18:10:50.691Z,0
2016-03-15T18:11:50.679Z,0
2016-03-15T18:12:50.650Z,0
2016-03-15T18:13:51.059Z,0
2016-03-15T18:14:50.609Z,0
2016-03-15T18:15:50.626Z,0
2016-03-15T18:16:50.598Z,0
2016-03-15T18:17:50.585Z,0
2016-03-15T18:18:50.556Z,0
2016-03-15T18:19:50.544Z,0
2016-03-15T18:20:50.531Z,0
2016-03-15T18:21:50.517Z,0
2016-03-15T18:22:50.489Z,0
2016-03-15T18:23:50.476Z,0
2016-03-15T18:24:50.447Z,0
2016-03-15T18:25:50.450Z,0
2016-03-15T18:26:50.422Z,0
2016-03-15T18:27:50.425Z,0
2016-03-15T18:28:50.380Z,0
2016-03-15T18:29:50.414Z,0
2016-03-15T18:30:50.339Z,0
2016-03-15T18:31:50.357Z,0
2016-03-15T18:32:50.313Z,0
2016-03-15T18:33:50.331Z,0
2016-03-15T18:34:50.288Z,0
2016-03-15T18:35:50.305Z,0
2016-03-15T18:36:50.246Z,0
2016-03-15T18:37:50.249Z,0
2016-03-15T18:38:50.220Z,0
2016-03-15T18:39:50.223Z,0
2016-03-15T18:40:50.193Z,0
2016-03-15T18:41:50.181Z,0
2016-03-15T18:42:50.199Z,0
2016-03-15T18:43:50.140Z,0
2016-03-15T18:44:50.142Z,0
2016-03-15T18:45:50.098Z,0
2016-03-15T18:46:50.117Z,0
2016-03-15T18:47:50.103Z,0
2016-03-15T18:48:50.059Z,0
2016-03-15T18:49:50.062Z,0
2016-03-15T18:50:50.033Z,0
2016-03-15T18:51:50.005Z,0
2016-03-15T18:52:49.867Z,0
2016-03-15T18:53:49.964Z,0
2016-03-15T18:54:49.825Z,0
2016-03-15T18:55:49.937Z,0
2016-03-15T18:56:49.924Z,0
2016-03-15T18:57:49.928Z,0
2016-03-15T18:58:49.945Z,0
2016-03-15T18:59:49.885Z,0
2016-03-15T19:00:49.857Z,0
2016-03-15T19:01:49.860Z,0
2016-03-15T19:02:49.831Z,0
2016-03-15T19:03:49.802Z,0
2016-03-15T19:04:49.805Z,0
2016-03-15T19:05:49.777Z,0
2016-03-15T19:06:49.764Z,0
2016-03-15T19:07:49.735Z,0
2016-03-15T19:08:49.737Z,0
2016-03-15T19:09:49.710Z,0
2016-03-15T19:10:49.696Z,0
2016-03-15T19:11:49.684Z,0
2016-03-15T19:12:49.655Z,0
2016-03-15T19:13:49.673Z,0
2016-03-15T19:14:49.629Z,0
2016-03-15T19:15:49.648Z,0
2016-03-15T19:16:49.604Z,0
2016-03-15T19:17:49.606Z,0
2016-03-15T19:18:49.562Z,0
2016-03-15T19:19:49.549Z,0
2016-03-15T19:20:49.536Z,0
2016-03-15T19:21:49.367Z,0
2016-03-15T19:22:49.510Z,0
2016-03-15T19:23:49.481Z,0
2016-03-15T19:24:49.469Z,0
2016-03-15T19:25:49.455Z,0
2016-03-15T19:26:49.427Z,0
2016-03-15T19:27:49.461Z,0
2016-03-15T19:28:49.386Z,0
2016-03-15T19:29:49.404Z,0
2016-03-15T19:30:49.375Z,0
2016-03-15T19:31:49.377Z,0
2016-03-15T19:32:49.350Z,0
2016-03-15T19:33:49.352Z,0
2016-03-15T19:34:49.307Z,0
2016-03-15T19:35:49.311Z,0
2016-03-15T19:36:48.532Z,0
2016-03-15T19:37:49.269Z,0
2016-03-15T19:38:49.241Z,0
2016-03-15T19:39:49.243Z,0
2016-03-15T19:40:49.215Z,0
2016-03-15T19:41:49.186Z,0
2016-03-15T19:42:49.188Z,0
2016-03-15T19:43:49.175Z,0
2016-03-15T19:44:49.162Z,0
2016-03-15T19:45:49.118Z,0
2016-03-15T19:46:49.809Z,0
2016-03-15T19:47:49.109Z,0
2016-03-15T19:48:49.095Z,0
2016-03-15T19:49:49.082Z,0
2016-03-15T19:50:48.898Z,0
2016-03-15T19:51:49.056Z,0
2016-03-15T19:52:49.012Z,0
2016-03-15T19:53:49.015Z,0
2016-03-15T19:54:48.986Z,0
2016-03-15T19:55:48.990Z,0
2016-03-15T19:56:48.976Z,0
2016-03-15T19:57:48.932Z,0
2016-03-15T19:58:48.920Z,0
2016-03-15T19:59:48.906Z,0
2016-03-15T20:00:48.909Z,0
2016-03-15T20:01:48.864Z,0
2016-03-15T20:02:48.883Z,0
2016-03-15T20:03:48.839Z,0
2016-03-15T20:04:48.827Z,0
2016-03-15T20:05:48.813Z,0
2016-03-15T20:06:48.799Z,0
2016-03-15T20:07:48.772Z,0
2016-03-15T20:08:48.758Z,0
2016-03-15T20:09:48.792Z,0
2016-03-15T20:10:48.717Z,0
2016-03-15T20:11:48.735Z,0
2016-03-15T20:12:48.691Z,0
2016-03-15T20:13:48.663Z,0
2016-03-15T20:14:48.681Z,0
2016-03-15T20:15:48.637Z,0
2016-03-15T20:16:48.655Z,0
2016-03-15T20:17:48.611Z,0
2016-03-15T20:18:48.614Z,0
2016-03-15T20:19:48.585Z,0
2016-03-15T20:20:48.556Z,0
2016-03-15T20:21:48.560Z,0
2016-03-15T20:22:48.529Z,0
2016-03-15T20:23:48.530Z,0
2016-03-15T20:24:48.486Z,0
2016-03-15T20:25:48.520Z,0
2016-03-15T20:26:48.475Z,0
2016-03-15T20:27:48.431Z,0
2016-03-15T20:28:48.420Z,0
2016-03-15T20:29:48.406Z,0
2016-03-15T20:30:48.378Z,0
2016-03-15T20:31:48.364Z,0
2016-03-15T20:32:48.352Z,0
2016-03-15T20:33:48.339Z,0
2016-03-15T20:34:48.325Z,0
2016-03-15T20:35:48.297Z,0
2016-03-15T20:36:48.285Z,0
2016-03-15T20:37:48.287Z,0
2016-03-15T20:38:48.259Z,0
2016-03-15T20:39:48.261Z,0
2016-03-15T20:40:48.264Z,0
2016-03-15T20:41:48.299Z,0
2016-03-15T20:42:48.191Z,0
2016-03-15T20:43:48.163Z,0
2016-03-15T20:44:48.165Z,0
2016-03-15T20:45:48.168Z,0
2016-03-15T20:46:48.108Z,0
2016-03-15T20:47:48.127Z,0
2016-03-15T20:48:48.067Z,0
2016-03-15T20:49:48.085Z,0
2016-03-15T20:50:48.057Z,0
2016-03-15T20:51:48.043Z,0
2016-03-15T20:52:48.031Z,0
2016-03-15T20:53:48.001Z,0
2016-03-15T20:54:47.973Z,0
2016-03-15T20:55:47.976Z,0
2016-03-15T20:56:47.995Z,0
2016-03-15T20:57:47.934Z,0
2016-03-15T20:58:47.922Z,0
2016-03-15T20:59:47.893Z,0
2016-03-15T21:00:48.396Z,0
2016-03-15T21:01:47.820Z,0
2016-03-15T21:02:47.869Z,0
2016-03-15T21:03:47.826Z,0
2016-03-15T21:04:47.844Z,0
2016-03-15T21:05:47.800Z,0
2016-03-15T21:06:47.881Z,0
2016-03-15T21:07:48.170Z,0
2016-03-15T21:08:47.736Z,0
2016-03-15T21:09:47.785Z,0
2016-03-15T21:10:47.741Z,0
2016-03-15T21:11:47.541Z,0
2016-03-15T21:12:47.684Z,0
2016-03-15T21:13:47.702Z,0
2016-03-15T21:14:47.642Z,0
2016-03-15T21:15:47.645Z,0
2016-03-15T21:16:47.601Z,0
2016-03-15T21:17:47.635Z,0
2016-03-15T21:18:47.560Z,0
2016-03-15T21:19:47.578Z,0
2016-03-15T21:20:47.550Z,0
2016-03-15T21:21:47.536Z,0
2016-03-15T21:22:47.507Z,0
2016-03-15T21:23:47.510Z,0
2016-03-15T21:24:47.466Z,0
2016-03-15T21:25:47.468Z,0
2016-03-15T21:26:47.424Z,0
2016-03-15T21:27:47.427Z,0
2016-03-15T21:28:47.398Z,0
2016-03-15T21:29:47.387Z,0
2016-03-15T21:30:47.373Z,0
2016-03-15T21:31:47.359Z,0
2016-03-15T21:32:47.348Z,0
2016-03-15T21:33:47.334Z,0
2016-03-15T21:34:47.306Z,0
2016-03-15T21:35:47.292Z,0
2016-03-15T21:36:47.264Z,0
2016-03-15T21:37:47.251Z,0
2016-03-15T21:38:47.239Z,0
2016-03-15T21:39:47.397Z,0
2016-03-15T21:40:47.212Z,0
2016-03-15T21:41:47.200Z,0
2016-03-15T21:42:47.171Z,0
2016-03-15T21:43:47.158Z,0
2016-03-15T21:44:47.114Z,0
2016-03-15T21:45:47.116Z,0
2016-03-15T21:46:47.089Z,0
2016-03-15T21:47:47.060Z,0
2016-03-15T21:48:47.062Z,0
2016-03-15T21:49:47.050Z,0
2016-03-15T21:50:47.021Z,0
2016-03-15T21:51:47.007Z,0
2016-03-15T21:52:47.010Z,0
2016-03-15T21:53:46.997Z,0
2016-03-15T21:54:46.969Z,0
2016-03-15T21:55:47.160Z,0
2016-03-15T21:56:46.943Z,0
2016-03-15T21:57:46.915Z,0
2016-03-15T21:58:46.730Z,0
2016-03-15T21:59:46.873Z,0
2016-03-15T22:00:46.845Z,0
2016-03-15T22:01:46.848Z,0
2016-03-15T22:02:46.834Z,0
2016-03-15T22:03:46.821Z,0
2016-03-15T22:04:46.793Z,0
2016-03-15T22:05:46.764Z,0
2016-03-15T22:06:46.752Z,0
2016-03-15T22:07:46.740Z,0
2016-03-15T22:08:46.710Z,0
2016-03-15T22:09:46.698Z,0
2016-03-15T22:10:46.668Z,0
2016-03-15T22:11:46.657Z,0
2016-03-15T22:12:46.643Z,0
2016-03-15T22:13:46.631Z,0
2016-03-15T22:14:46.601Z,0
2016-03-15T22:15:46.589Z,0
2016-03-15T22:16:46.560Z,0
2016-03-15T22:17:46.562Z,0
2016-03-15T22:18:46.534Z,0
2016-03-15T22:19:46.506Z,0
2016-03-15T22:20:46.478Z,0
2016-03-15T22:21:46.481Z,0
2016-03-15T22:22:46.483Z,0
2016-03-15T22:23:46.453Z,0
2016-03-15T22:24:46.441Z,0
2016-03-15T22:25:46.413Z,0
2016-03-15T22:26:46.400Z,0
2016-03-15T22:27:46.371Z,0
2016-03-15T22:28:46.358Z,0
2016-03-15T22:29:47.189Z,0
2016-03-15T22:30:46.333Z,0
2016-03-15T22:31:46.319Z,0
2016-03-15T22:32:46.275Z,0
2016-03-15T22:33:46.263Z,0
2016-03-15T22:34:46.093Z,0
2016-03-15T22:35:46.236Z,0
2016-03-15T22:36:46.224Z,0
2016-03-15T22:37:46.196Z,0
2016-03-15T22:38:46.182Z,0
2016-03-15T22:39:46.169Z,0
2016-03-15T22:40:46.156Z,0
2016-03-15T22:41:46.128Z,0
2016-03-15T22:42:46.115Z,0
2016-03-15T22:43:46.117Z,0
2016-03-15T22:44:46.074Z,0
2016-03-15T22:45:45.920Z,0
2016-03-15T22:46:46.032Z,0
2016-03-15T22:47:46.051Z,0
2016-03-15T22:48:45.990Z,0
2016-03-15T22:49:46.039Z,0
2016-03-15T22:50:45.949Z,0
2016-03-15T22:51:45.951Z,0
2016-03-15T22:52:45.939Z,0
2016-03-15T22:53:45.942Z,0
2016-03-15T22:54:45.898Z,0
2016-03-15T22:55:45.869Z,0
2016-03-15T22:56:45.731Z,0
2016-03-15T22:57:45.828Z,0
2016-03-15T22:58:45.845Z,0
2016-03-15T22:59:45.833Z,0
2016-03-15T23:00:45.772Z,0
2016-03-15T23:01:45.791Z,0
2016-03-15T23:02:45.763Z,0
2016-03-15T23:03:45.733Z,0
2016-03-15T23:04:45.736Z,0
2016-03-15T23:05:45.693Z,0
2016-03-15T23:06:45.695Z,0
2016-03-15T23:07:45.667Z,0
2016-03-15T23:08:45.655Z,0
2016-03-15T23:09:45.610Z,0
2016-03-15T23:10:45.613Z,0
2016-03-15T23:11:45.583Z,0
2016-03-15T23:12:45.555Z,0
2016-03-15T23:13:45.573Z,0
2016-03-15T23:14:45.545Z,0
2016-03-15T23:15:45.532Z,0
2016-03-15T23:16:45.519Z,0
2016-03-15T23:17:45.475Z,0
2016-03-15T23:18:45.493Z,0
2016-03-15T23:19:45.434Z,0
2016-03-15T23:20:45.451Z,0
2016-03-15T23:21:45.407Z,0
2016-03-15T23:22:45.409Z,0
2016-03-15T23:23:45.381Z,0
2016-03-15T23:24:45.368Z,0
2016-03-15T23:25:45.325Z,0
2016-03-15T23:26:45.343Z,0
2016-03-15T23:27:45.298Z,0
2016-03-15T23:28:45.286Z,0
2016-03-15T23:29:45.273Z,0
2016-03-15T23:30:45.244Z,0
2016-03-15T23:31:45.248Z,0
2016-03-15T23:32:45.219Z,0
2016-03-15T23:33:45.222Z,0
2016-03-15T23:34:45.177Z,0
2016-03-15T23:35:45.180Z,0
2016-03-15T23:36:45.135Z,0
2016-03-15T23:37:45.138Z,0
2016-03-15T23:38:45.094Z,0
2016-03-15T23:39:45.081Z,0
2016-03-15T23:40:45.053Z,0
2016-03-15T23:41:45.071Z,0
2016-03-15T23:42:45.027Z,0
2016-03-15T23:43:45.013Z,0
2016-03-15T23:44:45.001Z,0
2016-03-15T23:45:44.971Z,0
2016-03-15T23:46:44.975Z,0
2016-03-15T23:47:44.946Z,0
2016-03-15T23:48:44.949Z,0
2016-03-15T23:49:44.890Z,0
2016-03-15T23:50:44.751Z,0
2016-03-15T23:51:44.863Z,0
2016-03-15T23:52:44.710Z,0
2016-03-15T23:53:44.822Z,0
2016-03-15T23:54:44.824Z,0
2016-03-15T23:55:44.796Z,0
2016-03-15T23:56:44.767Z,0
2016-03-15T23:57:44.801Z,0
2016-03-15T23:58:44.725Z,0
2016-03-15T23:59:44.728Z,0
